Souris, Canada
Current Conditions -  °F | °C
As of 8:00 AM on Sunday 23 Nov 2014 (Local Time) from CYYG Reporting Station
Broken Clouds Broken Clouds  
Wind Chill: 25°   Ceiling: 9400
Heat Index: 34°   Visibility: 15mi
Dew Point: 30°   Wind: 12mph
Humidity: 87%   Direction: 250°WSW
Pressure: 29.88"   Gusts: NA
Location:  46.35°N, 62.25°W
Report Text: CYYG 231200Z 25010KT 15SM FEW012 FEW062 BKN094 01/M01 A2988 RMK SC1SC1AS5 SLP120
Loading
Personal Weather Stations






























Interactive Weather Map New forecast layout! Learn more

10-Day Weather Forecast

Advertisements
Track Severe Weather on mobile